sensor_id;sensor_type;location;lat;lon;timestamp;P1;durP1;ratioP1;P2;durP2;ratioP2
72388;SDS011;60566;48.062;9.930;2022-12-10T00:00:33;47.80;;;18.02;;
72388;SDS011;60566;48.062;9.930;2022-12-10T00:02:58;43.85;;;17.98;;
72388;SDS011;60566;48.062;9.930;2022-12-10T00:05:24;45.15;;;17.40;;
72388;SDS011;60566;48.062;9.930;2022-12-10T00:07:49;44.08;;;17.20;;
72388;SDS011;60566;48.062;9.930;2022-12-10T00:10:14;46.72;;;17.98;;
72388;SDS011;60566;48.062;9.930;2022-12-10T00:12:40;39.83;;;17.67;;
72388;SDS011;60566;48.062;9.930;2022-12-10T00:15:06;45.40;;;16.60;;
72388;SDS011;60566;48.062;9.930;2022-12-10T00:17:33;39.70;;;16.95;;
72388;SDS011;60566;48.062;9.930;2022-12-10T00:19:58;49.05;;;17.80;;
72388;SDS011;60566;48.062;9.930;2022-12-10T00:22:24;44.75;;;16.63;;
72388;SDS011;60566;48.062;9.930;2022-12-10T00:24:49;44.97;;;18.15;;
72388;SDS011;60566;48.062;9.930;2022-12-10T00:27:15;45.42;;;18.05;;
72388;SDS011;60566;48.062;9.930;2022-12-10T00:29:40;47.47;;;16.67;;
72388;SDS011;60566;48.062;9.930;2022-12-10T00:32:05;41.97;;;16.25;;
72388;SDS011;60566;48.062;9.930;2022-12-10T00:34:32;46.85;;;18.65;;
72388;SDS011;60566;48.062;9.930;2022-12-10T00:36:58;41.67;;;18.85;;
72388;SDS011;60566;48.062;9.930;2022-12-10T00:39:23;42.65;;;16.08;;
72388;SDS011;60566;48.062;9.930;2022-12-10T00:41:49;41.38;;;17.25;;
72388;SDS011;60566;48.062;9.930;2022-12-10T00:44:14;39.45;;;17.27;;
72388;SDS011;60566;48.062;9.930;2022-12-10T00:46:41;43.70;;;16.95;;
72388;SDS011;60566;48.062;9.930;2022-12-10T00:49:06;42.65;;;17.02;;
72388;SDS011;60566;48.062;9.930;2022-12-10T00:51:33;46.90;;;18.10;;
72388;SDS011;60566;48.062;9.930;2022-12-10T00:53:58;43.60;;;17.17;;
72388;SDS011;60566;48.062;9.930;2022-12-10T00:56:25;41.63;;;18.45;;
72388;SDS011;60566;48.062;9.930;2022-12-10T00:58:51;45.40;;;17.30;;
72388;SDS011;60566;48.062;9.930;2022-12-10T01:01:18;43.25;;;17.30;;
72388;SDS011;60566;48.062;9.930;2022-12-10T01:03:44;47.10;;;17.25;;
72388;SDS011;60566;48.062;9.930;2022-12-10T01:06:12;46.35;;;17.50;;
72388;SDS011;60566;48.062;9.930;2022-12-10T01:08:40;42.78;;;17.75;;
72388;SDS011;60566;48.062;9.930;2022-12-10T01:11:06;44.25;;;16.58;;
72388;SDS011;60566;48.062;9.930;2022-12-10T01:13:32;39.95;;;16.40;;
72388;SDS011;60566;48.062;9.930;2022-12-10T01:15:59;40.40;;;16.52;;
72388;SDS011;60566;48.062;9.930;2022-12-10T01:18:25;33.45;;;14.88;;
72388;SDS011;60566;48.062;9.930;2022-12-10T01:20:51;41.45;;;16.20;;
72388;SDS011;60566;48.062;9.930;2022-12-10T01:23:16;40.10;;;16.13;;
72388;SDS011;60566;48.062;9.930;2022-12-10T01:25:43;32.08;;;13.85;;
72388;SDS011;60566;48.062;9.930;2022-12-10T01:28:08;43.60;;;16.95;;
72388;SDS011;60566;48.062;9.930;2022-12-10T01:30:34;38.80;;;16.58;;
72388;SDS011;60566;48.062;9.930;2022-12-10T01:32:59;36.65;;;15.70;;
72388;SDS011;60566;48.062;9.930;2022-12-10T01:35:24;43.05;;;16.88;;
72388;SDS011;60566;48.062;9.930;2022-12-10T01:37:50;38.10;;;15.50;;
72388;SDS011;60566;48.062;9.930;2022-12-10T01:40:15;33.55;;;14.27;;
72388;SDS011;60566;48.062;9.930;2022-12-10T01:42:42;33.42;;;14.52;;
72388;SDS011;60566;48.062;9.930;2022-12-10T01:45:09;41.00;;;15.10;;
72388;SDS011;60566;48.062;9.930;2022-12-10T01:47:36;39.08;;;15.48;;
72388;SDS011;60566;48.062;9.930;2022-12-10T01:50:02;37.25;;;15.20;;
72388;SDS011;60566;48.062;9.930;2022-12-10T01:52:28;40.03;;;15.55;;
72388;SDS011;60566;48.062;9.930;2022-12-10T01:54:54;40.05;;;15.48;;
72388;SDS011;60566;48.062;9.930;2022-12-10T01:57:20;43.47;;;16.05;;
72388;SDS011;60566;48.062;9.930;2022-12-10T01:59:48;39.03;;;15.73;;
72388;SDS011;60566;48.062;9.930;2022-12-10T02:04:43;40.75;;;16.15;;
72388;SDS011;60566;48.062;9.930;2022-12-10T02:07:13;39.85;;;15.13;;
72388;SDS011;60566;48.062;9.930;2022-12-10T02:09:42;43.75;;;16.25;;
72388;SDS011;60566;48.062;9.930;2022-12-10T02:12:12;39.67;;;16.35;;
72388;SDS011;60566;48.062;9.930;2022-12-10T02:14:42;44.25;;;15.73;;
72388;SDS011;60566;48.062;9.930;2022-12-10T02:17:14;40.35;;;16.27;;
72388;SDS011;60566;48.062;9.930;2022-12-10T02:19:51;38.55;;;15.73;;
72388;SDS011;60566;48.062;9.930;2022-12-10T02:22:22;43.50;;;15.57;;
72388;SDS011;60566;48.062;9.930;2022-12-10T02:24:49;42.72;;;17.25;;
72388;SDS011;60566;48.062;9.930;2022-12-10T02:27:18;37.58;;;16.27;;
72388;SDS011;60566;48.062;9.930;2022-12-10T02:29:48;40.15;;;15.82;;
72388;SDS011;60566;48.062;9.930;2022-12-10T02:32:15;39.22;;;15.60;;
72388;SDS011;60566;48.062;9.930;2022-12-10T02:34:43;44.58;;;16.25;;
72388;SDS011;60566;48.062;9.930;2022-12-10T02:37:11;40.33;;;16.35;;
72388;SDS011;60566;48.062;9.930;2022-12-10T02:39:40;42.95;;;16.67;;
72388;SDS011;60566;48.062;9.930;2022-12-10T02:42:07;43.08;;;14.65;;
72388;SDS011;60566;48.062;9.930;2022-12-10T02:44:34;44.65;;;16.33;;
72388;SDS011;60566;48.062;9.930;2022-12-10T02:47:02;40.80;;;16.67;;
72388;SDS011;60566;48.062;9.930;2022-12-10T02:49:29;44.83;;;15.82;;
72388;SDS011;60566;48.062;9.930;2022-12-10T02:51:55;39.90;;;16.15;;
72388;SDS011;60566;48.062;9.930;2022-12-10T02:54:37;43.80;;;15.88;;
72388;SDS011;60566;48.062;9.930;2022-12-10T02:57:07;44.05;;;16.80;;
72388;SDS011;60566;48.062;9.930;2022-12-10T02:59:38;41.90;;;15.77;;
72388;SDS011;60566;48.062;9.930;2022-12-10T03:02:11;40.72;;;15.18;;
72388;SDS011;60566;48.062;9.930;2022-12-10T03:04:39;42.88;;;16.77;;
72388;SDS011;60566;48.062;9.930;2022-12-10T03:07:12;42.13;;;15.88;;
72388;SDS011;60566;48.062;9.930;2022-12-10T03:09:43;41.50;;;14.43;;
72388;SDS011;60566;48.062;9.930;2022-12-10T03:12:13;44.40;;;16.92;;
72388;SDS011;60566;48.062;9.930;2022-12-10T03:14:40;36.15;;;15.48;;
72388;SDS011;60566;48.062;9.930;2022-12-10T03:17:07;46.10;;;16.10;;
72388;SDS011;60566;48.062;9.930;2022-12-10T03:19:36;45.58;;;16.67;;
72388;SDS011;60566;48.062;9.930;2022-12-10T03:22:02;47.78;;;16.85;;
72388;SDS011;60566;48.062;9.930;2022-12-10T03:24:29;48.17;;;14.82;;
72388;SDS011;60566;48.062;9.930;2022-12-10T03:26:55;43.35;;;14.70;;
72388;SDS011;60566;48.062;9.930;2022-12-10T03:29:21;43.03;;;15.93;;
72388;SDS011;60566;48.062;9.930;2022-12-10T03:31:49;49.38;;;17.05;;
72388;SDS011;60566;48.062;9.930;2022-12-10T03:34:15;42.13;;;14.43;;
72388;SDS011;60566;48.062;9.930;2022-12-10T03:36:42;47.25;;;16.73;;
72388;SDS011;60566;48.062;9.930;2022-12-10T03:39:08;45.47;;;16.30;;
72388;SDS011;60566;48.062;9.930;2022-12-10T03:41:34;44.58;;;14.63;;
72388;SDS011;60566;48.062;9.930;2022-12-10T03:44:00;46.55;;;15.73;;
72388;SDS011;60566;48.062;9.930;2022-12-10T03:46:26;45.72;;;14.80;;
72388;SDS011;60566;48.062;9.930;2022-12-10T03:48:53;48.63;;;15.95;;
72388;SDS011;60566;48.062;9.930;2022-12-10T03:51:18;51.40;;;15.77;;
72388;SDS011;60566;48.062;9.930;2022-12-10T03:53:45;48.45;;;17.38;;
72388;SDS011;60566;48.062;9.930;2022-12-10T03:56:11;56.17;;;17.98;;
72388;SDS011;60566;48.062;9.930;2022-12-10T03:58:36;45.10;;;15.60;;
72388;SDS011;60566;48.062;9.930;2022-12-10T04:01:02;43.15;;;15.70;;
72388;SDS011;60566;48.062;9.930;2022-12-10T04:03:27;43.15;;;15.43;;
72388;SDS011;60566;48.062;9.930;2022-12-10T04:05:53;44.70;;;14.30;;
72388;SDS011;60566;48.062;9.930;2022-12-10T04:08:18;50.55;;;14.95;;
72388;SDS011;60566;48.062;9.930;2022-12-10T04:10:45;46.45;;;15.30;;
72388;SDS011;60566;48.062;9.930;2022-12-10T04:13:10;46.33;;;17.08;;
72388;SDS011;60566;48.062;9.930;2022-12-10T04:15:37;44.65;;;15.25;;
72388;SDS011;60566;48.062;9.930;2022-12-10T04:18:03;41.92;;;15.68;;
72388;SDS011;60566;48.062;9.930;2022-12-10T04:20:29;46.05;;;16.15;;
72388;SDS011;60566;48.062;9.930;2022-12-10T04:22:54;44.58;;;14.18;;
72388;SDS011;60566;48.062;9.930;2022-12-10T04:25:20;50.67;;;16.63;;
72388;SDS011;60566;48.062;9.930;2022-12-10T04:27:46;37.67;;;13.85;;
72388;SDS011;60566;48.062;9.930;2022-12-10T04:30:12;37.80;;;14.85;;
72388;SDS011;60566;48.062;9.930;2022-12-10T04:32:37;44.80;;;13.18;;
72388;SDS011;60566;48.062;9.930;2022-12-10T04:35:03;42.38;;;13.38;;
72388;SDS011;60566;48.062;9.930;2022-12-10T04:37:29;41.10;;;14.52;;
72388;SDS011;60566;48.062;9.930;2022-12-10T04:39:55;37.95;;;12.95;;
72388;SDS011;60566;48.062;9.930;2022-12-10T04:42:21;41.38;;;13.55;;
72388;SDS011;60566;48.062;9.930;2022-12-10T04:44:48;40.80;;;13.70;;
72388;SDS011;60566;48.062;9.930;2022-12-10T04:47:14;44.33;;;14.32;;
72388;SDS011;60566;48.062;9.930;2022-12-10T04:49:39;41.13;;;12.40;;
72388;SDS011;60566;48.062;9.930;2022-12-10T04:52:05;36.08;;;12.65;;
72388;SDS011;60566;48.062;9.930;2022-12-10T04:54:31;42.72;;;14.27;;
72388;SDS011;60566;48.062;9.930;2022-12-10T04:56:57;42.17;;;14.13;;
72388;SDS011;60566;48.062;9.930;2022-12-10T04:59:23;45.10;;;14.10;;
72388;SDS011;60566;48.062;9.930;2022-12-10T05:01:49;37.97;;;12.23;;
72388;SDS011;60566;48.062;9.930;2022-12-10T05:04:15;38.08;;;12.20;;
72388;SDS011;60566;48.062;9.930;2022-12-10T05:06:42;37.45;;;12.35;;
72388;SDS011;60566;48.062;9.930;2022-12-10T05:09:09;33.85;;;12.98;;
72388;SDS011;60566;48.062;9.930;2022-12-10T05:11:35;39.85;;;13.25;;
72388;SDS011;60566;48.062;9.930;2022-12-10T05:14:00;41.00;;;12.13;;
72388;SDS011;60566;48.062;9.930;2022-12-10T05:16:27;36.83;;;12.45;;
72388;SDS011;60566;48.062;9.930;2022-12-10T05:18:56;40.75;;;13.68;;
72388;SDS011;60566;48.062;9.930;2022-12-10T05:21:22;41.65;;;14.35;;
72388;SDS011;60566;48.062;9.930;2022-12-10T05:23:49;38.67;;;11.93;;
72388;SDS011;60566;48.062;9.930;2022-12-10T05:26:16;33.08;;;11.40;;
72388;SDS011;60566;48.062;9.930;2022-12-10T05:28:43;39.38;;;12.40;;
72388;SDS011;60566;48.062;9.930;2022-12-10T05:31:13;33.33;;;10.43;;
72388;SDS011;60566;48.062;9.930;2022-12-10T05:33:39;37.92;;;14.80;;
72388;SDS011;60566;48.062;9.930;2022-12-10T05:36:07;39.80;;;12.13;;
72388;SDS011;60566;48.062;9.930;2022-12-10T05:38:33;36.80;;;13.23;;
72388;SDS011;60566;48.062;9.930;2022-12-10T05:41:00;35.67;;;12.82;;
72388;SDS011;60566;48.062;9.930;2022-12-10T05:43:26;42.00;;;13.43;;
72388;SDS011;60566;48.062;9.930;2022-12-10T05:45:52;41.13;;;13.02;;
72388;SDS011;60566;48.062;9.930;2022-12-10T05:48:18;35.58;;;11.60;;
72388;SDS011;60566;48.062;9.930;2022-12-10T05:50:43;45.53;;;14.88;;
72388;SDS011;60566;48.062;9.930;2022-12-10T05:53:10;37.47;;;12.48;;
72388;SDS011;60566;48.062;9.930;2022-12-10T05:55:35;40.92;;;13.45;;
72388;SDS011;60566;48.062;9.930;2022-12-10T05:58:01;47.05;;;14.23;;
72388;SDS011;60566;48.062;9.930;2022-12-10T06:00:26;46.90;;;14.45;;
72388;SDS011;60566;48.062;9.930;2022-12-10T06:02:52;40.63;;;13.40;;
72388;SDS011;60566;48.062;9.930;2022-12-10T06:05:18;39.72;;;13.93;;
72388;SDS011;60566;48.062;9.930;2022-12-10T06:07:43;48.20;;;14.65;;
72388;SDS011;60566;48.062;9.930;2022-12-10T06:10:10;43.92;;;14.82;;
72388;SDS011;60566;48.062;9.930;2022-12-10T06:12:36;41.03;;;14.60;;
72388;SDS011;60566;48.062;9.930;2022-12-10T06:15:01;44.83;;;13.80;;
72388;SDS011;60566;48.062;9.930;2022-12-10T06:17:27;50.70;;;15.07;;
72388;SDS011;60566;48.062;9.930;2022-12-10T06:19:52;50.20;;;17.98;;
72388;SDS011;60566;48.062;9.930;2022-12-10T06:22:18;48.78;;;16.90;;
72388;SDS011;60566;48.062;9.930;2022-12-10T06:24:43;43.30;;;14.48;;
72388;SDS011;60566;48.062;9.930;2022-12-10T06:27:10;47.55;;;14.18;;
72388;SDS011;60566;48.062;9.930;2022-12-10T06:29:35;49.63;;;18.02;;
72388;SDS011;60566;48.062;9.930;2022-12-10T06:32:01;49.78;;;14.75;;
72388;SDS011;60566;48.062;9.930;2022-12-10T06:34:26;48.28;;;17.17;;
72388;SDS011;60566;48.062;9.930;2022-12-10T06:36:51;59.25;;;19.23;;
72388;SDS011;60566;48.062;9.930;2022-12-10T06:39:17;68.43;;;22.77;;
72388;SDS011;60566;48.062;9.930;2022-12-10T06:41:42;57.33;;;20.45;;
72388;SDS011;60566;48.062;9.930;2022-12-10T06:44:09;58.72;;;20.83;;
72388;SDS011;60566;48.062;9.930;2022-12-10T06:46:34;51.15;;;19.30;;
72388;SDS011;60566;48.062;9.930;2022-12-10T06:49:00;57.75;;;21.92;;
72388;SDS011;60566;48.062;9.930;2022-12-10T06:51:25;61.17;;;22.77;;
72388;SDS011;60566;48.062;9.930;2022-12-10T06:53:51;57.15;;;22.70;;
72388;SDS011;60566;48.062;9.930;2022-12-10T06:56:18;62.10;;;24.13;;
72388;SDS011;60566;48.062;9.930;2022-12-10T06:58:43;60.38;;;21.13;;
72388;SDS011;60566;48.062;9.930;2022-12-10T07:01:12;61.42;;;20.50;;
72388;SDS011;60566;48.062;9.930;2022-12-10T07:03:39;61.05;;;22.45;;
72388;SDS011;60566;48.062;9.930;2022-12-10T07:06:06;59.03;;;22.42;;
72388;SDS011;60566;48.062;9.930;2022-12-10T07:08:32;57.83;;;23.83;;
72388;SDS011;60566;48.062;9.930;2022-12-10T07:10:58;50.03;;;20.02;;
72388;SDS011;60566;48.062;9.930;2022-12-10T07:13:23;58.30;;;23.55;;
72388;SDS011;60566;48.062;9.930;2022-12-10T07:15:49;63.50;;;24.90;;
72388;SDS011;60566;48.062;9.930;2022-12-10T07:18:16;51.83;;;21.15;;
72388;SDS011;60566;48.062;9.930;2022-12-10T07:20:41;52.28;;;22.17;;
72388;SDS011;60566;48.062;9.930;2022-12-10T07:23:07;55.53;;;21.75;;
72388;SDS011;60566;48.062;9.930;2022-12-10T07:25:32;56.80;;;21.25;;
72388;SDS011;60566;48.062;9.930;2022-12-10T07:27:58;45.60;;;19.52;;
72388;SDS011;60566;48.062;9.930;2022-12-10T07:30:23;53.92;;;19.60;;
72388;SDS011;60566;48.062;9.930;2022-12-10T07:32:48;43.13;;;19.83;;
72388;SDS011;60566;48.062;9.930;2022-12-10T07:35:15;49.67;;;20.33;;
72388;SDS011;60566;48.062;9.930;2022-12-10T07:37:41;49.47;;;20.67;;
72388;SDS011;60566;48.062;9.930;2022-12-10T07:40:07;48.63;;;20.08;;
72388;SDS011;60566;48.062;9.930;2022-12-10T07:42:33;49.30;;;21.58;;
72388;SDS011;60566;48.062;9.930;2022-12-10T07:44:58;48.55;;;20.25;;
72388;SDS011;60566;48.062;9.930;2022-12-10T07:47:24;43.88;;;17.27;;
72388;SDS011;60566;48.062;9.930;2022-12-10T07:49:49;49.47;;;20.25;;
72388;SDS011;60566;48.062;9.930;2022-12-10T07:52:16;46.10;;;19.13;;
72388;SDS011;60566;48.062;9.930;2022-12-10T07:54:41;47.15;;;17.83;;
72388;SDS011;60566;48.062;9.930;2022-12-10T07:57:07;44.53;;;18.75;;
72388;SDS011;60566;48.062;9.930;2022-12-10T07:59:32;48.13;;;19.88;;
72388;SDS011;60566;48.062;9.930;2022-12-10T08:01:58;46.85;;;20.60;;
72388;SDS011;60566;48.062;9.930;2022-12-10T08:04:23;42.30;;;17.95;;
72388;SDS011;60566;48.062;9.930;2022-12-10T08:06:49;46.20;;;18.48;;
72388;SDS011;60566;48.062;9.930;2022-12-10T08:09:15;43.65;;;18.02;;
72388;SDS011;60566;48.062;9.930;2022-12-10T08:11:41;46.22;;;18.67;;
72388;SDS011;60566;48.062;9.930;2022-12-10T08:14:06;40.03;;;17.98;;
72388;SDS011;60566;48.062;9.930;2022-12-10T08:16:31;46.60;;;18.60;;
72388;SDS011;60566;48.062;9.930;2022-12-10T08:18:57;52.85;;;22.70;;
72388;SDS011;60566;48.062;9.930;2022-12-10T08:21:25;45.63;;;18.35;;
72388;SDS011;60566;48.062;9.930;2022-12-10T08:23:52;48.15;;;19.67;;
72388;SDS011;60566;48.062;9.930;2022-12-10T08:26:20;44.38;;;19.35;;
72388;SDS011;60566;48.062;9.930;2022-12-10T08:28:46;49.20;;;20.75;;
72388;SDS011;60566;48.062;9.930;2022-12-10T08:31:13;51.75;;;21.17;;
72388;SDS011;60566;48.062;9.930;2022-12-10T08:33:40;51.60;;;20.73;;
72388;SDS011;60566;48.062;9.930;2022-12-10T08:36:06;41.88;;;19.00;;
72388;SDS011;60566;48.062;9.930;2022-12-10T08:38:32;44.40;;;19.88;;
72388;SDS011;60566;48.062;9.930;2022-12-10T08:40:58;40.55;;;19.75;;
72388;SDS011;60566;48.062;9.930;2022-12-10T08:43:25;48.85;;;19.17;;
72388;SDS011;60566;48.062;9.930;2022-12-10T08:45:50;41.72;;;17.52;;
72388;SDS011;60566;48.062;9.930;2022-12-10T08:48:16;49.75;;;19.00;;
72388;SDS011;60566;48.062;9.930;2022-12-10T08:50:41;49.05;;;19.75;;
72388;SDS011;60566;48.062;9.930;2022-12-10T08:53:07;37.10;;;16.25;;
72388;SDS011;60566;48.062;9.930;2022-12-10T08:55:32;48.42;;;19.10;;
72388;SDS011;60566;48.062;9.930;2022-12-10T08:57:57;49.03;;;18.70;;
72388;SDS011;60566;48.062;9.930;2022-12-10T09:00:24;39.28;;;18.30;;
72388;SDS011;60566;48.062;9.930;2022-12-10T09:02:50;44.05;;;17.75;;
72388;SDS011;60566;48.062;9.930;2022-12-10T09:05:15;40.10;;;16.23;;
72388;SDS011;60566;48.062;9.930;2022-12-10T09:07:41;38.97;;;17.05;;
72388;SDS011;60566;48.062;9.930;2022-12-10T09:10:08;35.25;;;16.38;;
72388;SDS011;60566;48.062;9.930;2022-12-10T09:12:34;40.67;;;19.13;;
72388;SDS011;60566;48.062;9.930;2022-12-10T09:14:59;37.63;;;16.58;;
72388;SDS011;60566;48.062;9.930;2022-12-10T09:17:26;41.55;;;16.70;;
72388;SDS011;60566;48.062;9.930;2022-12-10T09:19:51;33.95;;;14.52;;
72388;SDS011;60566;48.062;9.930;2022-12-10T09:22:17;37.15;;;15.90;;
72388;SDS011;60566;48.062;9.930;2022-12-10T09:24:42;31.95;;;14.48;;
72388;SDS011;60566;48.062;9.930;2022-12-10T09:27:08;29.02;;;13.10;;
72388;SDS011;60566;48.062;9.930;2022-12-10T09:29:33;29.73;;;13.93;;
72388;SDS011;60566;48.062;9.930;2022-12-10T09:31:59;29.25;;;14.98;;
72388;SDS011;60566;48.062;9.930;2022-12-10T09:34:25;32.92;;;12.80;;
72388;SDS011;60566;48.062;9.930;2022-12-10T09:36:51;38.45;;;16.52;;
72388;SDS011;60566;48.062;9.930;2022-12-10T09:39:16;31.38;;;14.98;;
72388;SDS011;60566;48.062;9.930;2022-12-10T09:41:51;35.38;;;14.93;;
72388;SDS011;60566;48.062;9.930;2022-12-10T09:44:31;36.80;;;13.93;;
72388;SDS011;60566;48.062;9.930;2022-12-10T09:47:04;36.03;;;14.65;;
72388;SDS011;60566;48.062;9.930;2022-12-10T09:52:03;31.17;;;15.98;;
72388;SDS011;60566;48.062;9.930;2022-12-10T09:54:31;38.42;;;16.50;;
72388;SDS011;60566;48.062;9.930;2022-12-10T09:56:57;33.97;;;14.63;;
72388;SDS011;60566;48.062;9.930;2022-12-10T09:59:24;44.10;;;19.33;;
72388;SDS011;60566;48.062;9.930;2022-12-10T10:01:58;35.60;;;16.33;;
72388;SDS011;60566;48.062;9.930;2022-12-10T10:04:27;34.58;;;16.33;;
72388;SDS011;60566;48.062;9.930;2022-12-10T10:06:54;35.63;;;15.02;;
72388;SDS011;60566;48.062;9.930;2022-12-10T10:09:20;33.10;;;15.60;;
72388;SDS011;60566;48.062;9.930;2022-12-10T10:11:46;36.05;;;15.75;;
72388;SDS011;60566;48.062;9.930;2022-12-10T10:14:13;30.80;;;13.18;;
72388;SDS011;60566;48.062;9.930;2022-12-10T10:16:42;30.50;;;14.80;;
72388;SDS011;60566;48.062;9.930;2022-12-10T10:19:11;31.00;;;13.57;;
72388;SDS011;60566;48.062;9.930;2022-12-10T10:21:39;26.17;;;13.60;;
72388;SDS011;60566;48.062;9.930;2022-12-10T10:24:07;25.88;;;12.75;;
72388;SDS011;60566;48.062;9.930;2022-12-10T10:26:37;26.42;;;12.93;;
72388;SDS011;60566;48.062;9.930;2022-12-10T10:29:05;34.33;;;15.80;;
72388;SDS011;60566;48.062;9.930;2022-12-10T10:31:32;24.30;;;12.13;;
72388;SDS011;60566;48.062;9.930;2022-12-10T10:34:00;30.80;;;13.88;;
72388;SDS011;60566;48.062;9.930;2022-12-10T10:36:26;27.13;;;13.15;;
72388;SDS011;60566;48.062;9.930;2022-12-10T10:38:53;27.13;;;12.65;;
72388;SDS011;60566;48.062;9.930;2022-12-10T10:41:20;32.47;;;15.13;;
72388;SDS011;60566;48.062;9.930;2022-12-10T10:43:45;30.92;;;14.15;;
72388;SDS011;60566;48.062;9.930;2022-12-10T10:46:12;32.50;;;14.10;;
72388;SDS011;60566;48.062;9.930;2022-12-10T10:48:38;28.45;;;12.27;;
72388;SDS011;60566;48.062;9.930;2022-12-10T10:51:07;29.58;;;13.18;;
72388;SDS011;60566;48.062;9.930;2022-12-10T10:53:42;28.48;;;13.05;;
72388;SDS011;60566;48.062;9.930;2022-12-10T10:56:09;26.17;;;11.80;;
72388;SDS011;60566;48.062;9.930;2022-12-10T10:58:37;23.05;;;10.27;;
72388;SDS011;60566;48.062;9.930;2022-12-10T11:01:12;26.60;;;11.38;;
72388;SDS011;60566;48.062;9.930;2022-12-10T11:03:44;26.70;;;13.00;;
72388;SDS011;60566;48.062;9.930;2022-12-10T11:06:11;27.77;;;13.23;;
72388;SDS011;60566;48.062;9.930;2022-12-10T11:08:37;25.15;;;11.30;;
72388;SDS011;60566;48.062;9.930;2022-12-10T11:11:04;24.15;;;11.88;;
72388;SDS011;60566;48.062;9.930;2022-12-10T11:13:31;26.13;;;11.88;;
72388;SDS011;60566;48.062;9.930;2022-12-10T11:16:01;25.48;;;12.98;;
72388;SDS011;60566;48.062;9.930;2022-12-10T11:18:30;35.10;;;13.45;;
72388;SDS011;60566;48.062;9.930;2022-12-10T11:20:57;29.75;;;13.07;;
72388;SDS011;60566;48.062;9.930;2022-12-10T11:23:26;29.83;;;13.65;;
72388;SDS011;60566;48.062;9.930;2022-12-10T11:25:54;29.23;;;13.95;;
72388;SDS011;60566;48.062;9.930;2022-12-10T11:28:29;33.55;;;14.93;;
72388;SDS011;60566;48.062;9.930;2022-12-10T11:31:06;32.17;;;13.63;;
72388;SDS011;60566;48.062;9.930;2022-12-10T11:33:40;35.17;;;14.77;;
72388;SDS011;60566;48.062;9.930;2022-12-10T11:36:11;34.72;;;15.57;;
72388;SDS011;60566;48.062;9.930;2022-12-10T11:38:46;32.78;;;13.55;;
72388;SDS011;60566;48.062;9.930;2022-12-10T11:41:16;25.55;;;12.68;;
72388;SDS011;60566;48.062;9.930;2022-12-10T11:46:27;25.95;;;11.32;;
72388;SDS011;60566;48.062;9.930;2022-12-10T11:49:02;23.60;;;11.68;;
72388;SDS011;60566;48.062;9.930;2022-12-10T11:51:37;22.23;;;10.55;;
72388;SDS011;60566;48.062;9.930;2022-12-10T11:54:20;26.83;;;11.05;;
72388;SDS011;60566;48.062;9.930;2022-12-10T11:56:56;24.35;;;9.95;;
72388;SDS011;60566;48.062;9.930;2022-12-10T11:59:27;22.30;;;10.73;;
72388;SDS011;60566;48.062;9.930;2022-12-10T12:02:02;23.98;;;10.75;;
72388;SDS011;60566;48.062;9.930;2022-12-10T12:04:44;26.75;;;11.32;;
72388;SDS011;60566;48.062;9.930;2022-12-10T12:07:26;24.05;;;10.70;;
72388;SDS011;60566;48.062;9.930;2022-12-10T12:10:14;27.48;;;12.15;;
72388;SDS011;60566;48.062;9.930;2022-12-10T12:12:47;31.70;;;14.38;;
72388;SDS011;60566;48.062;9.930;2022-12-10T12:15:16;33.53;;;13.63;;
72388;SDS011;60566;48.062;9.930;2022-12-10T12:17:45;27.35;;;12.90;;
72388;SDS011;60566;48.062;9.930;2022-12-10T12:20:15;29.98;;;12.15;;
72388;SDS011;60566;48.062;9.930;2022-12-10T12:22:43;25.42;;;13.70;;
72388;SDS011;60566;48.062;9.930;2022-12-10T12:25:15;29.75;;;12.32;;
72388;SDS011;60566;48.062;9.930;2022-12-10T12:27:43;25.13;;;11.93;;
72388;SDS011;60566;48.062;9.930;2022-12-10T12:30:12;30.20;;;14.25;;
72388;SDS011;60566;48.062;9.930;2022-12-10T12:32:42;31.88;;;14.00;;
72388;SDS011;60566;48.062;9.930;2022-12-10T12:35:16;33.38;;;13.88;;
72388;SDS011;60566;48.062;9.930;2022-12-10T12:37:45;36.50;;;14.55;;
72388;SDS011;60566;48.062;9.930;2022-12-10T12:40:13;30.15;;;14.45;;
72388;SDS011;60566;48.062;9.930;2022-12-10T12:42:41;37.55;;;15.23;;
72388;SDS011;60566;48.062;9.930;2022-12-10T12:45:11;31.88;;;13.88;;
72388;SDS011;60566;48.062;9.930;2022-12-10T12:47:39;30.63;;;12.75;;
72388;SDS011;60566;48.062;9.930;2022-12-10T12:52:40;29.65;;;13.15;;
72388;SDS011;60566;48.062;9.930;2022-12-10T12:55:11;27.73;;;13.55;;
72388;SDS011;60566;48.062;9.930;2022-12-10T12:57:41;27.35;;;12.55;;
72388;SDS011;60566;48.062;9.930;2022-12-10T13:00:10;27.65;;;11.70;;
72388;SDS011;60566;48.062;9.930;2022-12-10T13:02:42;27.30;;;12.57;;
72388;SDS011;60566;48.062;9.930;2022-12-10T13:05:13;27.48;;;11.65;;
72388;SDS011;60566;48.062;9.930;2022-12-10T13:07:40;21.42;;;12.50;;
72388;SDS011;60566;48.062;9.930;2022-12-10T13:13:16;19.33;;;8.18;;
72388;SDS011;60566;48.062;9.930;2022-12-10T13:15:47;19.35;;;8.48;;
72388;SDS011;60566;48.062;9.930;2022-12-10T13:18:20;22.33;;;10.02;;
72388;SDS011;60566;48.062;9.930;2022-12-10T13:20:50;17.17;;;8.13;;
72388;SDS011;60566;48.062;9.930;2022-12-10T13:23:29;14.30;;;7.03;;
72388;SDS011;60566;48.062;9.930;2022-12-10T13:25:56;17.02;;;7.43;;
72388;SDS011;60566;48.062;9.930;2022-12-10T13:28:28;16.33;;;8.02;;
72388;SDS011;60566;48.062;9.930;2022-12-10T13:31:13;15.75;;;8.40;;
72388;SDS011;60566;48.062;9.930;2022-12-10T13:33:47;15.50;;;7.90;;
72388;SDS011;60566;48.062;9.930;2022-12-10T13:36:20;16.08;;;7.13;;
72388;SDS011;60566;48.062;9.930;2022-12-10T13:38:54;18.48;;;7.13;;
72388;SDS011;60566;48.062;9.930;2022-12-10T13:41:38;20.17;;;8.38;;
72388;SDS011;60566;48.062;9.930;2022-12-10T13:44:11;15.88;;;6.53;;
72388;SDS011;60566;48.062;9.930;2022-12-10T13:46:53;16.35;;;7.03;;
72388;SDS011;60566;48.062;9.930;2022-12-10T13:49:22;17.45;;;7.35;;
72388;SDS011;60566;48.062;9.930;2022-12-10T13:51:54;16.17;;;7.20;;
72388;SDS011;60566;48.062;9.930;2022-12-10T13:57:37;16.60;;;7.38;;
72388;SDS011;60566;48.062;9.930;2022-12-10T14:00:13;15.73;;;7.22;;
72388;SDS011;60566;48.062;9.930;2022-12-10T14:02:51;17.73;;;7.80;;
72388;SDS011;60566;48.062;9.930;2022-12-10T14:05:37;14.15;;;6.32;;
72388;SDS011;60566;48.062;9.930;2022-12-10T14:08:16;18.88;;;9.02;;
72388;SDS011;60566;48.062;9.930;2022-12-10T14:10:42;17.00;;;8.13;;
72388;SDS011;60566;48.062;9.930;2022-12-10T14:13:11;21.50;;;9.10;;
72388;SDS011;60566;48.062;9.930;2022-12-10T14:15:38;22.45;;;8.15;;
72388;SDS011;60566;48.062;9.930;2022-12-10T14:18:04;19.27;;;7.60;;
72388;SDS011;60566;48.062;9.930;2022-12-10T14:20:34;21.85;;;9.13;;
72388;SDS011;60566;48.062;9.930;2022-12-10T14:23:02;18.35;;;7.72;;
72388;SDS011;60566;48.062;9.930;2022-12-10T14:25:30;15.95;;;8.05;;
72388;SDS011;60566;48.062;9.930;2022-12-10T14:28:11;19.48;;;10.73;;
72388;SDS011;60566;48.062;9.930;2022-12-10T14:30:37;25.35;;;10.55;;
72388;SDS011;60566;48.062;9.930;2022-12-10T14:33:08;22.63;;;9.68;;
72388;SDS011;60566;48.062;9.930;2022-12-10T14:35:35;21.63;;;9.85;;
72388;SDS011;60566;48.062;9.930;2022-12-10T14:38:01;24.35;;;10.57;;
72388;SDS011;60566;48.062;9.930;2022-12-10T14:40:27;21.92;;;10.80;;
72388;SDS011;60566;48.062;9.930;2022-12-10T14:42:57;22.63;;;9.48;;